Time;durP1;ratioP1;P1;durP2;ratioP2;P2;SDS_P1;SDS_P2;PMS_P1;PMS_P2;Temp;Humidity;BMP_temperature;BMP_pressure;BME280_temperature;BME280_humidity;BME280_pressure;Samples;Min_cycle;Max_cycle;Signal;HPM_P1;HPM_P2
2022/05/06 04:04:05;;;;;;;8.43;6.53;;;12.40;99.90;;;;;;5665682;22;20228;-72
2022/05/06 04:06:31;;;;;;;7.93;6.17;;;12.40;99.90;;;;;;5014184;28;20517;-72
2022/05/06 04:08:56;;;;;;;7.80;5.77;;;12.40;99.90;;;;;;5014855;28;20488;-72
2022/05/06 04:11:22;;;;;;;7.43;6.73;;;12.40;99.90;;;;;;5014161;28;20206;-72
2022/05/06 04:13:48;;;;;;;6.73;6.07;;;12.50;99.90;;;;;;5013710;28;20198;-73
2022/05/06 04:16:14;;;;;;;9.20;6.90;;;12.50;99.90;;;;;;5014159;28;20193;-72
2022/05/06 04:18:40;;;;;;;6.70;6.10;;;12.50;99.90;;;;;;5014135;28;20266;-73
2022/05/06 04:23:51;;;;;;;7.03;6.32;;;12.50;99.90;;;;;;5013437;28;20213;-73
2022/05/06 04:26:16;;;;;;;7.50;6.70;;;12.50;99.90;;;;;;5013963;28;20179;-73
2022/05/06 04:28:44;;;;;;;6.63;5.50;;;12.50;99.90;;;;;;5014104;28;20454;-73
2022/05/06 04:31:10;;;;;;;7.67;6.07;;;12.50;99.90;;;;;;5014103;28;20166;-73
2022/05/06 04:33:40;;;;;;;7.23;6.30;;;12.50;99.90;;;;;;5011911;28;20490;-73
2022/05/06 04:36:06;;;;;;;8.50;7.70;;;12.50;99.90;;;;;;5012775;28;20797;-73
2022/05/06 04:38:32;;;;;;;6.85;6.00;;;12.60;99.90;;;;;;5013524;28;20461;-74
2022/05/06 04:40:59;;;;;;;5.50;5.00;;;12.50;99.90;;;;;;5013740;28;20180;-73
2022/05/06 04:43:25;;;;;;;11.02;6.03;;;12.60;99.90;;;;;;5013298;28;20480;-73
2022/05/06 04:45:52;;;;;;;6.83;6.20;;;12.60;99.90;;;;;;5013858;28;20640;-73
2022/05/06 04:48:19;;;;;;;7.97;6.10;;;12.60;99.90;;;;;;5013769;28;20533;-73
2022/05/06 04:50:46;;;;;;;6.27;5.70;;;12.60;99.90;;;;;;5013584;28;20412;-73
2022/05/06 04:53:12;;;;;;;6.40;5.80;;;12.60;99.90;;;;;;5012989;28;20453;-73
2022/05/06 04:55:43;;;;;;;6.00;5.40;;;12.60;99.90;;;;;;5012308;28;20637;-73
2022/05/06 04:58:09;;;;;;;7.53;6.20;;;12.60;99.90;;;;;;5013927;28;20191;-73
2022/05/06 05:00:36;;;;;;;11.55;6.55;;;12.50;99.90;;;;;;5013459;28;20184;-73
2022/05/06 05:03:02;;;;;;;6.57;5.90;;;12.60;99.90;;;;;;5013123;28;20203;-73
2022/05/06 05:05:28;;;;;;;6.07;5.57;;;12.50;99.90;;;;;;5013296;28;20430;-73
2022/05/06 05:07:54;;;;;;;7.87;7.00;;;12.50;99.90;;;;;;5013144;28;20593;-73
2022/05/06 05:10:23;;;;;;;9.67;6.57;;;12.50;99.90;;;;;;5013541;28;20410;-73
2022/05/06 05:12:49;;;;;;;9.53;6.80;;;12.50;99.90;;;;;;5012970;28;20172;-72
2022/05/06 05:15:18;;;;;;;9.70;6.93;;;12.50;99.90;;;;;;5011850;28;20414;-72
2022/05/06 05:17:45;;;;;;;8.45;7.40;;;12.50;99.90;;;;;;5002173;28;20176;-74
2022/05/06 05:20:15;;;;;;;9.53;8.53;;;12.50;99.90;;;;;;5013043;28;20239;-72
2022/05/06 05:22:41;;;;;;;6.70;5.10;;;12.50;99.90;;;;;;5012667;28;20424;-76
2022/05/06 05:25:08;;;;;;;7.83;5.77;;;12.50;99.90;;;;;;5006590;28;20810;-76
2022/05/06 05:27:36;;;;;;;9.73;7.03;;;12.50;99.90;;;;;;5013346;28;20407;-75
2022/05/06 05:30:05;;;;;;;6.57;5.67;;;12.50;99.90;;;;;;5006569;28;20425;-76
2022/05/06 05:32:32;;;;;;;7.00;6.40;;;12.40;99.90;;;;;;4993333;28;20488;-74
2022/05/06 05:34:58;;;;;;;6.50;5.90;;;12.50;99.90;;;;;;4998724;28;20817;-75
2022/05/06 05:37:24;;;;;;;6.80;6.20;;;12.50;99.90;;;;;;5012605;28;20438;-75
2022/05/06 05:39:50;;;;;;;9.73;7.60;;;12.40;99.90;;;;;;5012407;28;20386;-73
2022/05/06 05:42:23;;;;;;;6.07;5.50;;;12.40;99.90;;;;;;5012789;28;20414;-73
2022/05/06 05:50:18;;;;;;;6.30;5.70;;;12.40;99.90;;;;;;5016017;28;20427;-71
2022/05/06 05:52:44;;;;;;;7.03;6.43;;;12.50;99.90;;;;;;5014137;28;20177;-75
2022/05/06 05:55:10;;;;;;;8.03;6.60;;;12.60;99.90;;;;;;5016853;28;20411;-75
2022/05/06 05:57:36;;;;;;;7.90;6.00;;;12.50;99.90;;;;;;5000863;28;20423;-75
2022/05/06 06:00:03;;;;;;;11.53;7.17;;;12.50;99.90;;;;;;5016863;28;20424;-74
2022/05/06 06:02:30;;;;;;;7.38;6.30;;;12.50;99.90;;;;;;5015191;28;20182;-73
2022/05/06 06:04:56;;;;;;;5.78;4.80;;;12.60;99.90;;;;;;5013585;28;20214;-71
2022/05/06 06:07:21;;;;;;;6.30;5.70;;;12.60;99.90;;;;;;5002920;28;20172;-75
2022/05/06 06:09:47;;;;;;;8.37;5.93;;;12.60;99.90;;;;;;5009437;28;20184;-75
2022/05/06 06:12:12;;;;;;;6.93;6.33;;;12.60;99.90;;;;;;5008098;28;20185;-70
2022/05/06 06:14:38;;;;;;;7.70;6.00;;;12.60;99.90;;;;;;4996629;28;20223;-71
2022/05/06 06:17:04;;;;;;;6.20;5.60;;;12.50;99.90;;;;;;4996808;28;20165;-70
2022/05/06 06:19:30;;;;;;;6.63;6.03;;;12.60;99.90;;;;;;4996348;28;20184;-71
2022/05/06 06:21:55;;;;;;;7.30;6.60;;;12.50;99.90;;;;;;4996755;28;20414;-71
2022/05/06 06:24:21;;;;;;;6.70;6.03;;;12.60;99.90;;;;;;4996089;28;20554;-67
2022/05/06 06:26:46;;;;;;;7.30;5.40;;;12.60;99.90;;;;;;4999630;28;20179;-66
2022/05/06 06:29:12;;;;;;;6.17;5.53;;;12.60;99.90;;;;;;5015850;28;20209;-66
2022/05/06 06:31:38;;;;;;;8.73;5.80;;;12.70;99.90;;;;;;5016317;28;20232;-66
2022/05/06 06:34:04;;;;;;;5.93;5.37;;;12.70;99.90;;;;;;5015560;28;20654;-66
2022/05/06 06:36:30;;;;;;;7.80;5.18;;;12.70;99.90;;;;;;5015996;28;20402;-66
2022/05/06 06:38:55;;;;;;;5.47;4.97;;;12.80;99.90;;;;;;5015842;28;20586;-67
2022/05/06 06:41:21;;;;;;;5.50;5.00;;;12.80;99.90;;;;;;5015362;28;20203;-68
2022/05/06 06:43:50;;;;;;;7.60;5.93;;;12.80;99.90;;;;;;5015557;28;20229;-67
2022/05/06 06:46:16;;;;;;;6.40;5.77;;;12.80;99.90;;;;;;5015733;28;20204;-68
2022/05/06 06:48:42;;;;;;;5.97;4.93;;;12.70;99.90;;;;;;5015256;28;20562;-67
2022/05/06 06:51:09;;;;;;;6.93;5.80;;;12.80;99.90;;;;;;5015551;28;20507;-67
2022/05/06 06:53:35;;;;;;;10.10;7.00;;;12.80;99.90;;;;;;5015124;28;20421;-68
2022/05/06 06:56:00;;;;;;;7.03;5.63;;;12.80;99.90;;;;;;5015370;28;20411;-68
2022/05/06 06:58:26;;;;;;;6.07;5.47;;;12.80;99.90;;;;;;5015157;28;20411;-68
2022/05/06 07:00:53;;;;;;;6.30;5.17;;;12.80;99.90;;;;;;5015436;28;20653;-68
2022/05/06 07:03:19;;;;;;;5.40;4.90;;;12.80;99.90;;;;;;5014862;28;20258;-69
2022/05/06 07:13:57;;;;;;;5.80;5.30;;;12.80;99.90;;;;;;5014383;28;20471;-66
2022/05/06 07:16:23;;;;;;;6.53;5.80;;;12.80;99.90;;;;;;5015060;28;20398;-67
2022/05/06 07:18:50;;;;;;;5.13;4.63;;;12.90;99.90;;;;;;5015081;28;20276;-68
2022/05/06 07:21:15;;;;;;;5.40;4.77;;;12.90;99.90;;;;;;5017738;28;20407;-66
2022/05/06 07:23:41;;;;;;;6.90;5.57;;;12.90;99.90;;;;;;5017878;28;20418;-67
2022/05/06 07:26:07;;;;;;;6.93;5.63;;;12.80;99.90;;;;;;5018192;28;20172;-67
2022/05/06 07:28:33;;;;;;;9.47;6.73;;;12.80;99.90;;;;;;5013943;28;20184;-69
2022/05/06 07:30:58;;;;;;;5.33;4.90;;;12.80;99.90;;;;;;5014157;28;20178;-70
2022/05/06 07:33:24;;;;;;;6.17;5.57;;;12.80;99.90;;;;;;5014291;28;20188;-70
2022/05/06 07:35:50;;;;;;;6.30;5.70;;;12.80;99.90;;;;;;5014180;28;20195;-70
2022/05/06 07:38:16;;;;;;;5.13;4.73;;;12.80;99.90;;;;;;5014618;28;20893;-70
2022/05/06 07:40:41;;;;;;;6.87;6.00;;;12.90;99.90;;;;;;5012938;28;20635;-69
2022/05/06 07:43:07;;;;;;;5.30;4.80;;;12.90;99.90;;;;;;5013415;28;20205;-70
2022/05/06 07:45:32;;;;;;;7.60;6.27;;;12.90;99.90;;;;;;5014868;28;20173;-69
2022/05/06 07:47:58;;;;;;;6.00;4.63;;;12.90;99.90;;;;;;5014221;28;20243;-71
2022/05/06 07:50:26;;;;;;;6.60;5.47;;;12.90;99.90;;;;;;5012542;28;20672;-70
2022/05/06 07:52:52;;;;;;;5.37;4.90;;;12.90;99.90;;;;;;5011896;28;20216;-70
2022/05/06 07:55:19;;;;;;;5.90;5.13;;;13.00;99.90;;;;;;5012450;28;20404;-71
2022/05/06 07:57:46;;;;;;;7.00;6.30;;;13.00;99.90;;;;;;5012103;28;20717;-70
2022/05/06 08:00:12;;;;;;;7.57;6.87;;;13.00;99.90;;;;;;5012346;28;20401;-71
2022/05/06 08:05:26;;;;;;;5.90;5.40;;;13.10;99.90;;;;;;5012220;28;20798;-70
2022/05/06 08:07:51;;;;;;;6.27;5.73;;;13.20;99.90;;;;;;5012372;28;20518;-70
2022/05/06 08:10:17;;;;;;;6.13;5.53;;;13.20;99.90;;;;;;5013779;28;20404;-69
2022/05/06 08:12:43;;;;;;;5.87;5.20;;;13.20;99.90;;;;;;5013563;28;20184;-70
2022/05/06 08:15:09;;;;;;;9.47;4.90;;;13.30;99.90;;;;;;5014300;28;20189;-70
2022/05/06 08:17:38;;;;;;;5.60;4.87;;;13.30;99.90;;;;;;5012725;28;20643;-69
2022/05/06 08:20:06;;;;;;;7.00;4.63;;;13.40;99.90;;;;;;5014070;28;20408;-69
2022/05/06 08:22:32;;;;;;;6.90;5.90;;;13.50;99.90;;;;;;5013416;28;20472;-68
2022/05/06 08:24:57;;;;;;;7.23;4.97;;;13.50;99.90;;;;;;5013860;28;20428;-70
2022/05/06 08:27:23;;;;;;;5.87;5.33;;;13.70;99.90;;;;;;5013281;28;20177;-70
2022/05/06 08:29:48;;;;;;;14.77;6.40;;;13.80;99.90;;;;;;5013498;28;20196;-71
2022/05/06 08:32:14;;;;;;;6.03;5.03;;;13.90;99.90;;;;;;5013491;28;20651;-70
2022/05/06 08:34:40;;;;;;;6.97;5.70;;;14.00;99.90;;;;;;5013505;28;20200;-70
2022/05/06 08:37:05;;;;;;;6.53;5.53;;;14.00;99.90;;;;;;5013211;28;20220;-71
2022/05/06 08:39:31;;;;;;;6.10;5.50;;;14.10;99.90;;;;;;5013614;28;20173;-70
2022/05/06 08:41:59;;;;;;;6.10;5.10;;;14.30;99.90;;;;;;5013189;28;20185;-70
2022/05/06 08:52:43;;;;;;;4.87;4.43;;;14.80;99.90;;;;;;5013578;28;20476;-71
2022/05/06 08:55:09;;;;;;;4.67;4.20;;;15.00;99.90;;;;;;5013486;28;20452;-66
2022/05/06 08:57:35;;;;;;;5.13;4.67;;;15.10;99.90;;;;;;5013449;28;20420;-70
2022/05/06 09:00:02;;;;;;;5.87;5.47;;;15.10;99.90;;;;;;5013255;28;20213;-71
2022/05/06 09:02:27;;;;;;;6.17;4.43;;;15.10;99.90;;;;;;5012010;28;20380;-66
2022/05/06 09:04:53;;;;;;;5.80;4.90;;;15.10;99.90;;;;;;5011271;28;20445;-70
2022/05/06 09:07:21;;;;;;;5.20;4.70;;;15.20;99.90;;;;;;5011909;28;20181;-71
2022/05/06 09:10:13;;;;;;;5.57;4.80;;;15.30;99.90;;;;;;5012345;28;20198;-70
2022/05/06 09:12:42;;;;;;;4.80;4.30;;;15.40;99.90;;;;;;4992319;28;20410;-70
2022/05/06 09:17:57;;;;;;;4.07;3.77;;;15.50;99.90;;;;;;5011989;28;20421;-70
2022/05/06 09:20:25;;;;;;;5.03;4.20;;;15.50;99.90;;;;;;5015124;28;20392;-68
2022/05/06 09:22:51;;;;;;;4.27;3.80;;;15.50;99.90;;;;;;5013785;28;20459;-70
2022/05/06 09:25:35;;;;;;;4.70;4.30;;;15.60;99.90;;;;;;5016680;28;20773;-68
2022/05/06 09:28:02;;;;;;;6.10;4.57;;;15.70;99.90;;;;;;5017028;28;20486;-69
2022/05/06 09:30:28;;;;;;;7.73;4.40;;;15.90;99.90;;;;;;5016985;28;20381;-70
2022/05/06 09:32:53;;;;;;;5.10;4.30;;;16.00;99.90;;;;;;5015412;28;20378;-70
2022/05/06 09:35:19;;;;;;;4.50;4.20;;;16.10;99.90;;;;;;5016941;28;20168;-70
2022/05/06 09:37:47;;;;;;;4.33;3.47;;;16.20;99.90;;;;;;5017215;28;20167;-70
2022/05/06 09:40:20;;;;;;;5.10;4.60;;;16.20;99.90;;;;;;5016621;28;20393;-72
2022/05/06 09:42:59;;;;;;;5.93;5.33;;;16.30;99.90;;;;;;5016194;28;20415;-67
2022/05/06 09:45:37;;;;;;;4.63;4.23;;;16.40;99.90;;;;;;5017107;28;20422;-71
2022/05/06 09:48:04;;;;;;;3.80;3.50;;;16.50;99.90;;;;;;5016907;28;20414;-70
2022/05/06 09:50:38;;;;;;;3.90;3.30;;;16.60;99.90;;;;;;5017194;28;20387;-70
2022/05/06 09:53:08;;;;;;;4.57;3.53;;;16.60;99.90;;;;;;5016383;28;20494;-71
2022/05/06 09:55:39;;;;;;;4.37;3.97;;;16.60;99.90;;;;;;5016577;28;20468;-70
2022/05/06 09:58:04;;;;;;;4.67;4.00;;;16.60;99.90;;;;;;5016468;28;20399;-71
2022/05/06 10:00:32;;;;;;;3.73;3.43;;;16.70;99.90;;;;;;5016597;28;20399;-71
2022/05/06 10:03:00;;;;;;;4.17;3.60;;;16.80;99.90;;;;;;5015833;28;20726;-69
2022/05/06 10:05:27;;;;;;;4.33;3.93;;;16.90;99.90;;;;;;5014916;28;20494;-70
2022/05/06 10:07:57;;;;;;;6.53;4.40;;;17.10;99.90;;;;;;5015020;28;20445;-70
2022/05/06 10:10:29;;;;;;;4.27;3.87;;;17.20;99.90;;;;;;5016352;28;20397;-70
2022/05/06 10:13:03;;;;;;;3.83;3.53;;;17.30;99.90;;;;;;5015964;28;20384;-70
2022/05/06 10:15:30;;;;;;;3.77;3.47;;;17.50;99.90;;;;;;5016248;28;20414;-70
2022/05/06 10:17:57;;;;;;;6.33;4.40;;;17.70;99.90;;;;;;5015638;28;20560;-70
2022/05/06 10:20:43;;;;;;;6.03;4.30;;;18.00;99.90;;;;;;5015930;28;20551;-71
2022/05/06 10:23:11;;;;;;;3.63;3.30;;;18.30;99.90;;;;;;5015709;28;20437;-70
2022/05/06 10:25:40;;;;;;;4.00;3.50;;;18.40;99.90;;;;;;5015827;28;20426;-70
2022/05/06 10:34:11;;;;;;;4.20;3.90;;;19.40;99.90;;;;;;5015135;28;20476;-71
2022/05/06 10:36:54;;;;;;;3.93;3.63;;;19.50;99.90;;;;;;5016040;28;20806;-69
2022/05/06 10:39:19;;;;;;;4.27;3.77;;;20.10;99.90;;;;;;5015650;28;20844;-67
2022/05/06 10:42:11;;;;;;;4.70;4.20;;;20.80;99.90;;;;;;5014195;28;20422;-68
2022/05/06 10:44:48;;;;;;;4.40;4.00;;;21.40;98.80;;;;;;5015514;28;20230;-70
2022/05/06 10:47:16;;;;;;;3.27;2.97;;;21.80;98.00;;;;;;5015113;28;20398;-71
2022/05/06 10:49:43;;;;;;;4.87;4.10;;;22.00;97.80;;;;;;5015527;28;20421;-71
2022/05/06 10:54:52;;;;;;;5.43;4.50;;;22.40;95.90;;;;;;5015520;28;20437;-71
2022/05/06 10:57:20;;;;;;;4.23;3.83;;;22.50;95.40;;;;;;5015231;28;20392;-72
2022/05/06 10:59:56;;;;;;;3.50;3.20;;;22.50;94.30;;;;;;5015285;28;20472;-71
2022/05/06 11:02:27;;;;;;;4.43;4.03;;;22.70;94.00;;;;;;5015096;28;20406;-72
2022/05/06 11:04:54;;;;;;;6.50;4.90;;;22.70;93.30;;;;;;5015439;28;20480;-72
2022/05/06 11:07:20;;;;;;;3.77;3.47;;;22.50;93.70;;;;;;5014731;28;20762;-71
2022/05/06 11:09:46;;;;;;;4.73;3.80;;;22.60;93.40;;;;;;5013674;28;20879;-72
2022/05/06 11:12:34;;;;;;;3.07;2.77;;;22.40;92.20;;;;;;5012230;28;20421;-70
2022/05/06 11:15:03;;;;;;;3.50;2.90;;;22.40;92.80;;;;;;5013441;28;20450;-71
2022/05/06 11:17:33;;;;;;;4.00;3.60;;;22.30;91.90;;;;;;5014677;28;20380;-71
2022/05/06 11:20:23;;;;;;;3.07;2.77;;;22.10;92.00;;;;;;5015042;28;20489;-71
2022/05/06 11:23:18;;;;;;;3.63;3.10;;;22.30;91.50;;;;;;5014442;28;20423;-71
2022/05/06 11:25:46;;;;;;;3.77;3.47;;;22.50;90.50;;;;;;5000498;28;20483;-71
2022/05/06 11:28:20;;;;;;;3.63;3.33;;;22.30;89.20;;;;;;5011094;28;20419;-71
2022/05/06 11:30:51;;;;;;;3.27;3.00;;;22.20;88.60;;;;;;5012931;28;20384;-72
2022/05/06 11:33:26;;;;;;;3.67;2.97;;;22.00;86.80;;;;;;5013854;28;20459;-70
2022/05/06 11:36:01;;;;;;;4.90;4.40;;;21.70;85.80;;;;;;5014130;28;20443;-70
2022/05/06 11:38:35;;;;;;;4.20;3.47;;;21.20;87.90;;;;;;5014226;28;20456;-71
2022/05/06 11:41:11;;;;;;;2.20;2.10;;;21.10;88.50;;;;;;5014337;28;20408;-70
2022/05/06 11:43:42;;;;;;;3.50;3.20;;;20.90;89.80;;;;;;5011571;28;20427;-70
2022/05/06 11:49:02;;;;;;;2.87;2.67;;;20.70;90.30;;;;;;5014320;28;20815;-69
2022/05/06 11:51:41;;;;;;;3.67;3.33;;;20.50;89.80;;;;;;5013483;28;20476;-70
2022/05/06 11:54:09;;;;;;;4.60;3.00;;;20.60;90.20;;;;;;5014125;28;20418;-70
2022/05/06 11:56:35;;;;;;;3.43;3.17;;;20.50;90.00;;;;;;5014793;28;20731;-72
2022/05/06 11:59:02;;;;;;;3.80;3.50;;;20.50;90.10;;;;;;5013281;28;20393;-71
2022/05/06 12:01:30;;;;;;;2.97;2.77;;;20.40;90.10;;;;;;5014152;28;20171;-72
2022/05/06 12:04:10;;;;;;;3.73;3.43;;;20.30;90.80;;;;;;5058595;28;20538;-71
2022/05/06 12:06:38;;;;;;;3.37;3.07;;;20.20;90.50;;;;;;5050979;28;20389;-71
2022/05/06 12:09:14;;;;;;;3.17;2.87;;;20.10;90.60;;;;;;5050425;28;20367;-70
2022/05/06 12:11:40;;;;;;;3.60;3.30;;;20.00;91.20;;;;;;5050677;28;20712;-70
2022/05/06 12:14:08;;;;;;;6.03;3.10;;;19.90;90.80;;;;;;5050051;28;20458;-71
2022/05/06 12:16:33;;;;;;;4.37;3.97;;;19.90;91.00;;;;;;5049101;28;20762;-71
2022/05/06 12:19:02;;;;;;;3.40;3.20;;;19.80;91.20;;;;;;5049964;28;20408;-71
2022/05/06 12:21:28;;;;;;;3.30;3.00;;;19.70;91.20;;;;;;5049905;28;20177;-71
2022/05/06 12:23:57;;;;;;;6.10;3.53;;;19.60;91.40;;;;;;5049527;28;20431;-71
2022/05/06 12:26:34;;;;;;;7.97;3.33;;;19.60;91.10;;;;;;5048689;28;20478;-70
2022/05/06 12:29:01;;;;;;;3.30;3.00;;;19.60;91.50;;;;;;5050302;28;20400;-71
2022/05/06 12:31:33;;;;;;;3.07;2.87;;;19.60;91.80;;;;;;5049955;28;20923;-70
2022/05/06 12:34:07;;;;;;;4.20;3.80;;;19.80;91.40;;;;;;5049185;28;20444;-71
2022/05/06 12:36:37;;;;;;;7.90;3.27;;;19.80;91.00;;;;;;5050084;28;20454;-73
2022/05/06 12:39:21;;;;;;;3.53;3.23;;;19.90;90.90;;;;;;5049935;28;20830;-71
2022/05/06 12:41:48;;;;;;;4.70;3.10;;;19.90;90.90;;;;;;5049639;28;20408;-71
2022/05/06 12:44:22;;;;;;;4.87;3.60;;;20.20;90.70;;;;;;5049346;28;20413;-71
2022/05/06 12:46:49;;;;;;;3.43;3.13;;;20.40;90.50;;;;;;5049936;28;20379;-71
2022/05/06 12:52:03;;;;;;;12.40;3.87;;;20.70;90.60;;;;;;5049672;28;20408;-72
2022/05/06 12:54:30;;;;;;;7.20;4.33;;;20.80;89.60;;;;;;5048162;28;20440;-72
2022/05/06 12:56:55;;;;;;;3.17;2.87;;;20.80;88.70;;;;;;5049676;28;20814;-72
2022/05/06 12:59:21;;;;;;;4.40;3.13;;;21.00;89.20;;;;;;5049775;28;20456;-72
2022/05/06 13:01:47;;;;;;;3.33;3.03;;;21.00;87.50;;;;;;5049300;28;20524;-72
2022/05/06 13:04:13;;;;;;;3.03;2.83;;;21.00;87.90;;;;;;5048981;28;20204;-71
2022/05/06 13:06:38;;;;;;;5.77;3.73;;;21.00;88.70;;;;;;5049408;28;20225;-71
2022/05/06 13:09:04;;;;;;;3.40;3.10;;;21.00;88.90;;;;;;5049206;28;20221;-72
2022/05/06 13:11:29;;;;;;;5.03;2.90;;;21.10;88.50;;;;;;5049253;28;20653;-71
2022/05/06 13:13:55;;;;;;;5.90;4.00;;;21.10;87.20;;;;;;5043617;28;20247;-71
2022/05/06 13:16:21;;;;;;;9.30;4.20;;;21.00;87.40;;;;;;5036002;28;20640;-72
2022/05/06 13:18:46;;;;;;;3.40;3.13;;;20.80;88.90;;;;;;5035871;28;20632;-72
2022/05/06 13:21:12;;;;;;;3.43;3.13;;;20.60;88.80;;;;;;5035859;28;20176;-71
2022/05/06 13:23:39;;;;;;;2.93;2.73;;;20.60;89.80;;;;;;5033806;28;20207;-72
2022/05/06 13:26:05;;;;;;;3.80;3.50;;;20.60;89.30;;;;;;5036096;28;20166;-71
2022/05/06 13:28:31;;;;;;;4.20;3.90;;;20.60;88.50;;;;;;5034161;28;20742;-71
2022/05/06 13:30:56;;;;;;;4.20;3.80;;;20.40;88.70;;;;;;5035594;28;20380;-71
2022/05/06 13:33:22;;;;;;;3.30;3.00;;;20.40;88.90;;;;;;5034546;28;20198;-71
2022/05/06 13:35:49;;;;;;;3.13;2.40;;;20.40;89.40;;;;;;5035482;28;20185;-70
2022/05/06 13:38:14;;;;;;;3.33;3.03;;;20.50;89.50;;;;;;5033859;28;20178;-71
2022/05/06 13:40:40;;;;;;;3.23;3.03;;;20.60;90.00;;;;;;5035375;28;20463;-72
2022/05/06 13:43:06;;;;;;;3.40;3.10;;;20.60;88.70;;;;;;5034137;28;20280;-72
2022/05/06 13:45:31;;;;;;;3.40;3.20;;;20.50;87.80;;;;;;5035298;28;20177;-72
2022/05/06 13:47:58;;;;;;;5.53;3.37;;;20.40;88.30;;;;;;5035549;28;20173;-71
2022/05/06 13:50:23;;;;;;;3.30;3.00;;;20.30;89.30;;;;;;5035293;28;20636;-70
2022/05/06 13:52:49;;;;;;;3.17;2.97;;;20.30;90.00;;;;;;5034304;28;20504;-72
2022/05/06 13:55:15;;;;;;;2.90;2.70;;;20.40;89.80;;;;;;5033728;28;20662;-71
2022/05/06 14:00:25;;;;;;;3.50;3.20;;;20.40;89.10;;;;;;5035372;28;20206;-72
2022/05/06 14:02:54;;;;;;;2.73;2.40;;;20.50;89.10;;;;;;5032725;28;20994;-71
2022/05/06 14:05:20;;;;;;;2.97;2.77;;;20.50;88.80;;;;;;5034908;28;20762;-71
2022/05/06 14:07:46;;;;;;;3.37;3.07;;;20.50;90.00;;;;;;5034891;28;20372;-71
2022/05/06 14:10:12;;;;;;;3.20;3.00;;;20.50;90.30;;;;;;5034976;28;20728;-71
2022/05/06 14:12:38;;;;;;;3.40;3.10;;;20.60;90.20;;;;;;5034543;28;20172;-71
2022/05/06 14:15:05;;;;;;;3.63;3.33;;;20.50;90.10;;;;;;5034765;28;20934;-72
2022/05/06 14:17:31;;;;;;;3.13;2.93;;;20.50;90.40;;;;;;5034361;28;20403;-71
2022/05/06 14:19:57;;;;;;;3.30;3.00;;;20.60;90.20;;;;;;5034571;28;20848;-71
2022/05/06 14:22:26;;;;;;;3.53;2.90;;;20.50;90.20;;;;;;5034427;28;20503;-70
2022/05/06 14:24:51;;;;;;;3.40;3.10;;;20.50;90.10;;;;;;5034257;28;20453;-71
2022/05/06 14:27:18;;;;;;;3.70;2.63;;;20.50;90.20;;;;;;5033945;28;20420;-72
2022/05/06 14:29:44;;;;;;;4.50;2.73;;;20.60;90.20;;;;;;5034639;28;20166;-72
2022/05/06 14:32:11;;;;;;;4.10;3.00;;;20.60;90.30;;;;;;5032726;28;20982;-71
2022/05/06 14:34:37;;;;;;;3.03;2.83;;;20.50;90.70;;;;;;5034359;28;20453;-72
2022/05/06 14:37:03;;;;;;;3.80;3.40;;;20.40;90.50;;;;;;5034552;28;20448;-71
2022/05/06 14:39:28;;;;;;;3.57;3.10;;;20.30;90.40;;;;;;5034231;28;20166;-70
2022/05/06 14:41:54;;;;;;;5.27;3.60;;;20.30;90.90;;;;;;5034012;28;20545;-72
2022/05/06 14:44:20;;;;;;;3.97;3.20;;;20.10;90.70;;;;;;5033552;28;20223;-71
2022/05/06 14:46:46;;;;;;;3.27;2.57;;;20.10;90.80;;;;;;5033938;28;20177;-71
2022/05/06 14:49:11;;;;;;;3.80;2.70;;;20.00;90.90;;;;;;5033915;28;20616;-71
2022/05/06 14:51:37;;;;;;;3.00;2.50;;;19.90;90.60;;;;;;5033957;28;20379;-70
2022/05/06 14:54:03;;;;;;;4.10;3.70;;;19.90;90.50;;;;;;5032110;28;20205;-71
2022/05/06 14:56:30;;;;;;;3.93;3.53;;;19.80;91.20;;;;;;5034094;28;20189;-71
2022/05/06 14:58:58;;;;;;;3.20;3.00;;;19.80;91.10;;;;;;5034040;28;20410;-71
2022/05/06 15:01:23;;;;;;;3.73;3.30;;;19.70;91.10;;;;;;5033990;28;20463;-71
2022/05/06 15:03:49;;;;;;;3.57;2.80;;;19.80;90.70;;;;;;5031975;28;20543;-71
2022/05/06 15:06:15;;;;;;;3.53;3.23;;;19.70;90.90;;;;;;5033883;28;20844;-71
2022/05/06 15:08:40;;;;;;;3.30;3.10;;;19.70;91.10;;;;;;5033492;28;20671;-71
2022/05/06 15:11:08;;;;;;;3.53;3.00;;;19.70;91.00;;;;;;5033944;28;20170;-71
2022/05/06 15:13:34;;;;;;;3.17;2.87;;;19.60;91.10;;;;;;5033238;28;20187;-69
2022/05/06 15:16:00;;;;;;;3.67;2.80;;;19.60;91.60;;;;;;5033817;28;20806;-71
2022/05/06 15:21:13;;;;;;;3.30;3.00;;;19.70;91.50;;;;;;5033639;28;20755;-71
2022/05/06 15:23:46;;;;;;;4.03;3.73;;;19.60;91.60;;;;;;5033189;28;20441;-70
2022/05/06 15:26:16;;;;;;;4.10;3.70;;;19.60;91.40;;;;;;5033489;28;20452;-71
2022/05/06 15:28:42;;;;;;;3.80;3.50;;;19.60;91.40;;;;;;5033402;28;20405;-70
2022/05/06 15:31:09;;;;;;;3.80;3.00;;;19.50;91.70;;;;;;5033483;28;20431;-69
2022/05/06 15:33:35;;;;;;;5.00;4.17;;;19.50;92.00;;;;;;5032595;28;20447;-71
2022/05/06 15:36:01;;;;;;;3.20;2.87;;;19.50;91.40;;;;;;5033333;28;20471;-72
2022/05/06 15:38:30;;;;;;;4.70;2.63;;;19.40;91.00;;;;;;5032913;28;20524;-72
2022/05/06 15:40:56;;;;;;;3.87;3.27;;;19.40;90.90;;;;;;5033273;28;20178;-71
2022/05/06 15:43:21;;;;;;;3.17;2.83;;;19.30;91.10;;;;;;5032431;28;20510;-70
2022/05/06 15:45:47;;;;;;;4.40;3.00;;;19.30;91.40;;;;;;5033105;28;20201;-69
2022/05/06 15:48:13;;;;;;;3.37;2.67;;;19.30;91.80;;;;;;5032758;28;20202;-71
2022/05/06 15:50:41;;;;;;;3.10;2.90;;;19.20;91.70;;;;;;5033128;28;20174;-71
2022/05/06 15:53:07;;;;;;;3.00;2.80;;;19.20;91.80;;;;;;5032307;28;20189;-70
2022/05/06 15:55:33;;;;;;;3.93;3.00;;;19.30;91.70;;;;;;5032888;28;20505;-70
2022/05/06 15:57:58;;;;;;;3.10;2.80;;;19.30;91.50;;;;;;5032984;28;20894;-72
2022/05/06 16:00:24;;;;;;;4.20;3.80;;;19.20;91.50;;;;;;5031949;28;20535;-71
2022/05/06 16:02:50;;;;;;;3.20;2.90;;;19.20;91.60;;;;;;5032275;28;20672;-71
2022/05/06 16:05:16;;;;;;;2.60;2.50;;;19.20;91.80;;;;;;5033033;28;20202;-71
2022/05/06 16:07:41;;;;;;;3.00;2.70;;;19.20;91.80;;;;;;5032687;28;20223;-69
2022/05/06 16:10:10;;;;;;;3.63;3.10;;;19.20;92.00;;;;;;5032800;28;20184;-70
2022/05/06 16:12:37;;;;;;;3.30;2.53;;;19.20;91.90;;;;;;5032114;28;20178;-70
2022/05/06 16:15:21;;;;;;;3.10;2.90;;;19.20;91.90;;;;;;5032263;28;20444;-68
2022/05/06 16:17:55;;;;;;;3.67;3.37;;;19.20;91.90;;;;;;5032298;28;20849;-67
2022/05/06 16:20:26;;;;;;;3.27;2.93;;;19.10;91.70;;;;;;5032371;28;20431;-67
2022/05/06 16:22:54;;;;;;;3.90;2.87;;;19.10;91.90;;;;;;5032036;28;20939;-65
2022/05/06 16:25:21;;;;;;;3.07;2.77;;;19.10;91.80;;;;;;5031885;28;20399;-62
2022/05/06 16:27:48;;;;;;;3.07;2.87;;;19.10;91.80;;;;;;5013218;28;20428;-61
2022/05/06 16:30:14;;;;;;;4.43;3.53;;;19.00;91.90;;;;;;5028050;28;20419;-62
2022/05/06 16:32:41;;;;;;;2.40;2.20;;;18.90;92.00;;;;;;5032383;28;20430;-61
2022/05/06 16:37:53;;;;;;;3.37;3.07;;;18.90;92.30;;;;;;5032673;28;20439;-61
2022/05/06 16:40:19;;;;;;;3.63;2.97;;;18.80;92.50;;;;;;5032279;28;20419;-62
2022/05/06 16:42:45;;;;;;;5.33;3.10;;;18.80;92.60;;;;;;5032104;28;20493;-61
2022/05/06 16:45:15;;;;;;;3.57;3.30;;;18.90;92.40;;;;;;5032328;28;20419;-62
2022/05/06 16:47:43;;;;;;;2.70;2.50;;;18.80;92.50;;;;;;5032462;28;20409;-61
2022/05/06 16:50:10;;;;;;;3.30;2.97;;;18.80;92.60;;;;;;5035097;28;20434;-63
2022/05/06 16:52:36;;;;;;;3.07;2.77;;;18.80;92.60;;;;;;5035973;28;20391;-60
2022/05/06 16:55:03;;;;;;;3.20;2.90;;;18.70;92.60;;;;;;5035643;28;20485;-60
2022/05/06 16:57:29;;;;;;;4.20;3.40;;;18.60;92.70;;;;;;5036448;28;20415;-62
2022/05/06 16:59:54;;;;;;;2.87;2.67;;;18.60;93.00;;;;;;5036101;28;20422;-62
2022/05/06 17:02:20;;;;;;;3.30;3.00;;;18.50;93.30;;;;;;5035602;28;20218;-61
2022/05/06 17:04:46;;;;;;;4.20;3.40;;;18.50;93.40;;;;;;5035346;28;20193;-62
2022/05/06 17:07:12;;;;;;;3.57;3.27;;;18.40;93.60;;;;;;5036163;28;20180;-66
2022/05/06 17:09:37;;;;;;;3.63;3.43;;;18.40;93.50;;;;;;5035821;28;20180;-68
2022/05/06 17:12:04;;;;;;;3.60;3.30;;;18.30;93.60;;;;;;5035561;28;20239;-68
2022/05/06 17:14:30;;;;;;;3.20;2.97;;;18.30;93.60;;;;;;5035521;28;20667;-68
2022/05/06 17:16:55;;;;;;;3.37;2.90;;;18.20;93.70;;;;;;5034473;28;20510;-68
2022/05/06 17:19:22;;;;;;;2.90;2.70;;;18.20;94.00;;;;;;5035484;28;20211;-68
2022/05/06 17:21:48;;;;;;;3.20;3.00;;;18.10;94.00;;;;;;5035776;28;20168;-66
2022/05/06 17:24:14;;;;;;;2.97;2.77;;;18.10;94.20;;;;;;5033617;28;20466;-66
2022/05/06 17:26:40;;;;;;;4.10;3.33;;;18.10;94.40;;;;;;5035412;28;20524;-67
2022/05/06 17:29:06;;;;;;;2.80;2.60;;;18.10;94.20;;;;;;5034521;28;20820;-60
2022/05/06 17:31:35;;;;;;;5.37;4.67;;;18.10;93.90;;;;;;5035152;28;20494;-64
2022/05/06 17:34:01;;;;;;;3.90;3.20;;;18.00;93.90;;;;;;5032296;28;20442;-61
2022/05/06 17:36:28;;;;;;;13.43;8.40;;;18.00;93.90;;;;;;5024551;28;20467;-64
2022/05/06 17:38:56;;;;;;;2.90;2.70;;;17.90;93.90;;;;;;5023362;28;20188;-60
2022/05/06 17:41:21;;;;;;;2.80;2.60;;;17.80;93.90;;;;;;5026781;28;20394;-58
2022/05/06 17:43:48;;;;;;;3.17;2.97;;;17.80;93.60;;;;;;5021944;28;20809;-60